sensor_id;sensor_type;location;lat;lon;timestamp;temperature;humidity
42187;DHT22;27858;51.414;0.018;2023-05-10T04:02:11;11.20;99.90
42187;DHT22;27858;51.414;0.018;2023-05-10T04:04:38;11.20;99.90
42187;DHT22;27858;51.414;0.018;2023-05-10T04:07:05;11.20;99.90
42187;DHT22;27858;51.414;0.018;2023-05-10T04:09:32;11.10;99.90
42187;DHT22;27858;51.414;0.018;2023-05-10T04:11:59;11.10;99.90
42187;DHT22;27858;51.414;0.018;2023-05-10T04:14:27;11.10;99.90
42187;DHT22;27858;51.414;0.018;2023-05-10T04:16:53;11.10;99.90
42187;DHT22;27858;51.414;0.018;2023-05-10T04:19:20;11.10;99.90
42187;DHT22;27858;51.414;0.018;2023-05-10T04:21:47;11.10;99.90
42187;DHT22;27858;51.414;0.018;2023-05-10T04:24:13;11.10;99.90
42187;DHT22;27858;51.414;0.018;2023-05-10T04:26:40;10.90;99.90
42187;DHT22;27858;51.414;0.018;2023-05-10T04:29:07;10.90;99.90
42187;DHT22;27858;51.414;0.018;2023-05-10T04:31:33;11.00;99.90
42187;DHT22;27858;51.414;0.018;2023-05-10T04:34:02;11.00;99.90
42187;DHT22;27858;51.414;0.018;2023-05-10T04:36:29;10.90;99.90
42187;DHT22;27858;51.414;0.018;2023-05-10T04:38:56;10.90;99.90
42187;DHT22;27858;51.414;0.018;2023-05-10T04:41:22;10.80;99.90
42187;DHT22;27858;51.414;0.018;2023-05-10T04:43:49;10.90;99.90
42187;DHT22;27858;51.414;0.018;2023-05-10T04:46:16;10.90;99.90
42187;DHT22;27858;51.414;0.018;2023-05-10T04:48:43;10.80;99.90
42187;DHT22;27858;51.414;0.018;2023-05-10T04:51:09;10.90;99.90
42187;DHT22;27858;51.414;0.018;2023-05-10T04:53:36;10.70;99.90
42187;DHT22;27858;51.414;0.018;2023-05-10T04:56:03;10.70;99.90
42187;DHT22;27858;51.414;0.018;2023-05-10T04:58:30;10.80;99.90
42187;DHT22;27858;51.414;0.018;2023-05-10T05:00:57;10.70;99.90
42187;DHT22;27858;51.414;0.018;2023-05-10T05:03:23;10.80;99.90
42187;DHT22;27858;51.414;0.018;2023-05-10T05:05:50;10.70;99.90
42187;DHT22;27858;51.414;0.018;2023-05-10T05:08:17;10.80;99.90
42187;DHT22;27858;51.414;0.018;2023-05-10T05:10:44;10.70;99.90
42187;DHT22;27858;51.414;0.018;2023-05-10T05:13:12;10.70;99.90
42187;DHT22;27858;51.414;0.018;2023-05-10T05:15:39;10.50;99.90
42187;DHT22;27858;51.414;0.018;2023-05-10T05:18:06;10.70;99.90
42187;DHT22;27858;51.414;0.018;2023-05-10T05:20:33;10.70;99.90
42187;DHT22;27858;51.414;0.018;2023-05-10T05:23:03;10.60;99.90
42187;DHT22;27858;51.414;0.018;2023-05-10T05:25:29;10.60;99.90
42187;DHT22;27858;51.414;0.018;2023-05-10T05:27:56;10.60;99.90
42187;DHT22;27858;51.414;0.018;2023-05-10T05:30:23;10.70;99.90
42187;DHT22;27858;51.414;0.018;2023-05-10T05:32:49;10.60;99.90
42187;DHT22;27858;51.414;0.018;2023-05-10T05:35:16;10.80;99.90
42187;DHT22;27858;51.414;0.018;2023-05-10T05:37:43;10.70;99.90
42187;DHT22;27858;51.414;0.018;2023-05-10T05:40:12;10.80;99.90
42187;DHT22;27858;51.414;0.018;2023-05-10T05:42:40;10.80;99.90
42187;DHT22;27858;51.414;0.018;2023-05-10T05:45:07;10.80;99.90
42187;DHT22;27858;51.414;0.018;2023-05-10T05:47:35;10.80;99.90
42187;DHT22;27858;51.414;0.018;2023-05-10T05:50:02;10.80;99.90
42187;DHT22;27858;51.414;0.018;2023-05-10T05:52:29;10.80;99.90
42187;DHT22;27858;51.414;0.018;2023-05-10T05:54:56;10.80;99.90
42187;DHT22;27858;51.414;0.018;2023-05-10T05:57:23;11.00;99.90
42187;DHT22;27858;51.414;0.018;2023-05-10T05:59:50;11.00;99.90
42187;DHT22;27858;51.414;0.018;2023-05-10T06:02:16;11.00;99.90
42187;DHT22;27858;51.414;0.018;2023-05-10T06:04:43;11.00;99.90
42187;DHT22;27858;51.414;0.018;2023-05-10T06:07:10;11.10;99.90
42187;DHT22;27858;51.414;0.018;2023-05-10T06:09:37;11.00;99.90
42187;DHT22;27858;51.414;0.018;2023-05-10T06:12:03;11.10;99.90
42187;DHT22;27858;51.414;0.018;2023-05-10T06:14:30;11.00;99.90
42187;DHT22;27858;51.414;0.018;2023-05-10T06:16:57;11.00;99.90
42187;DHT22;27858;51.414;0.018;2023-05-10T06:19:26;11.10;99.90
42187;DHT22;27858;51.414;0.018;2023-05-10T06:21:54;11.00;99.90
42187;DHT22;27858;51.414;0.018;2023-05-10T06:24:21;11.00;99.90
42187;DHT22;27858;51.414;0.018;2023-05-10T06:26:48;11.00;99.90
42187;DHT22;27858;51.414;0.018;2023-05-10T06:29:16;11.10;99.90
42187;DHT22;27858;51.414;0.018;2023-05-10T06:31:43;11.10;99.90
42187;DHT22;27858;51.414;0.018;2023-05-10T06:34:11;11.20;99.90
42187;DHT22;27858;51.414;0.018;2023-05-10T06:36:38;11.30;99.90
42187;DHT22;27858;51.414;0.018;2023-05-10T06:39:05;11.40;99.90
42187;DHT22;27858;51.414;0.018;2023-05-10T06:41:32;11.40;99.90
42187;DHT22;27858;51.414;0.018;2023-05-10T06:43:59;11.40;99.90
42187;DHT22;27858;51.414;0.018;2023-05-10T06:46:25;11.40;99.90
42187;DHT22;27858;51.414;0.018;2023-05-10T06:48:52;11.60;99.90
42187;DHT22;27858;51.414;0.018;2023-05-10T06:51:19;11.60;99.90
42187;DHT22;27858;51.414;0.018;2023-05-10T06:53:47;11.60;99.90
42187;DHT22;27858;51.414;0.018;2023-05-10T06:56:14;11.50;99.90
42187;DHT22;27858;51.414;0.018;2023-05-10T06:58:41;11.60;99.90
42187;DHT22;27858;51.414;0.018;2023-05-10T07:01:08;11.60;99.90
42187;DHT22;27858;51.414;0.018;2023-05-10T07:03:35;11.60;99.90
42187;DHT22;27858;51.414;0.018;2023-05-10T07:06:03;11.70;99.90
42187;DHT22;27858;51.414;0.018;2023-05-10T07:08:33;11.80;99.90
42187;DHT22;27858;51.414;0.018;2023-05-10T07:11:04;11.90;99.90
42187;DHT22;27858;51.414;0.018;2023-05-10T07:13:34;11.90;99.90
42187;DHT22;27858;51.414;0.018;2023-05-10T07:16:02;11.90;99.90
42187;DHT22;27858;51.414;0.018;2023-05-10T07:18:29;12.00;99.90
42187;DHT22;27858;51.414;0.018;2023-05-10T07:20:57;11.90;99.90
42187;DHT22;27858;51.414;0.018;2023-05-10T07:23:24;12.00;99.90
42187;DHT22;27858;51.414;0.018;2023-05-10T07:25:51;12.00;99.90
42187;DHT22;27858;51.414;0.018;2023-05-10T07:28:19;12.10;99.90
42187;DHT22;27858;51.414;0.018;2023-05-10T07:30:46;12.10;99.90
42187;DHT22;27858;51.414;0.018;2023-05-10T07:33:14;12.20;99.90
42187;DHT22;27858;51.414;0.018;2023-05-10T07:35:42;12.30;99.90
42187;DHT22;27858;51.414;0.018;2023-05-10T07:38:08;12.40;99.90
42187;DHT22;27858;51.414;0.018;2023-05-10T07:40:38;12.50;99.90
42187;DHT22;27858;51.414;0.018;2023-05-10T07:43:05;12.50;99.90
42187;DHT22;27858;51.414;0.018;2023-05-10T07:45:33;12.60;99.90
42187;DHT22;27858;51.414;0.018;2023-05-10T07:48:00;12.60;99.90
42187;DHT22;27858;51.414;0.018;2023-05-10T07:50:27;12.60;99.90
42187;DHT22;27858;51.414;0.018;2023-05-10T07:52:54;12.60;99.90
42187;DHT22;27858;51.414;0.018;2023-05-10T07:55:21;12.80;99.90
42187;DHT22;27858;51.414;0.018;2023-05-10T07:57:47;12.90;99.90
42187;DHT22;27858;51.414;0.018;2023-05-10T08:00:18;12.90;99.90
42187;DHT22;27858;51.414;0.018;2023-05-10T08:02:45;13.00;99.90
42187;DHT22;27858;51.414;0.018;2023-05-10T08:05:12;13.00;99.90
42187;DHT22;27858;51.414;0.018;2023-05-10T08:07:40;13.10;99.90
42187;DHT22;27858;51.414;0.018;2023-05-10T08:10:07;13.20;99.90
42187;DHT22;27858;51.414;0.018;2023-05-10T08:12:35;13.30;99.90
42187;DHT22;27858;51.414;0.018;2023-05-10T08:15:03;13.30;99.90
42187;DHT22;27858;51.414;0.018;2023-05-10T08:17:30;13.40;99.90
42187;DHT22;27858;51.414;0.018;2023-05-10T08:19:57;13.50;99.90
42187;DHT22;27858;51.414;0.018;2023-05-10T08:22:24;13.40;99.90
42187;DHT22;27858;51.414;0.018;2023-05-10T08:24:50;13.60;99.90
42187;DHT22;27858;51.414;0.018;2023-05-10T08:27:17;13.60;99.90
42187;DHT22;27858;51.414;0.018;2023-05-10T08:29:44;13.70;99.90
42187;DHT22;27858;51.414;0.018;2023-05-10T08:32:16;13.70;99.90
42187;DHT22;27858;51.414;0.018;2023-05-10T08:34:43;13.90;99.90
42187;DHT22;27858;51.414;0.018;2023-05-10T08:37:10;14.00;99.90
42187;DHT22;27858;51.414;0.018;2023-05-10T08:39:39;14.10;99.90
42187;DHT22;27858;51.414;0.018;2023-05-10T08:42:07;14.10;99.90
42187;DHT22;27858;51.414;0.018;2023-05-10T08:44:36;14.00;99.90
42187;DHT22;27858;51.414;0.018;2023-05-10T08:47:05;14.10;99.90
42187;DHT22;27858;51.414;0.018;2023-05-10T08:49:33;14.20;99.90
42187;DHT22;27858;51.414;0.018;2023-05-10T08:52:02;14.10;99.90
42187;DHT22;27858;51.414;0.018;2023-05-10T08:54:32;14.20;99.90
42187;DHT22;27858;51.414;0.018;2023-05-10T08:56:59;14.40;99.90
42187;DHT22;27858;51.414;0.018;2023-05-10T08:59:27;14.50;99.90
42187;DHT22;27858;51.414;0.018;2023-05-10T09:01:57;14.60;99.90
42187;DHT22;27858;51.414;0.018;2023-05-10T09:04:24;14.60;99.90
42187;DHT22;27858;51.414;0.018;2023-05-10T09:06:51;14.60;99.90
42187;DHT22;27858;51.414;0.018;2023-05-10T09:09:19;14.70;99.90
42187;DHT22;27858;51.414;0.018;2023-05-10T09:11:46;14.60;99.90
42187;DHT22;27858;51.414;0.018;2023-05-10T09:14:14;14.70;99.90
42187;DHT22;27858;51.414;0.018;2023-05-10T09:16:41;14.80;99.90
42187;DHT22;27858;51.414;0.018;2023-05-10T09:19:08;14.70;99.90
42187;DHT22;27858;51.414;0.018;2023-05-10T09:21:36;14.70;99.90
42187;DHT22;27858;51.414;0.018;2023-05-10T09:24:08;14.60;99.90
42187;DHT22;27858;51.414;0.018;2023-05-10T09:26:46;14.90;99.90
42187;DHT22;27858;51.414;0.018;2023-05-10T09:29:16;14.90;99.90
42187;DHT22;27858;51.414;0.018;2023-05-10T09:31:45;15.00;99.90
42187;DHT22;27858;51.414;0.018;2023-05-10T09:34:30;15.10;99.90
42187;DHT22;27858;51.414;0.018;2023-05-10T09:37:01;15.20;99.90
42187;DHT22;27858;51.414;0.018;2023-05-10T09:39:38;15.30;99.90
42187;DHT22;27858;51.414;0.018;2023-05-10T09:42:06;15.30;99.90
42187;DHT22;27858;51.414;0.018;2023-05-10T09:44:34;15.30;99.90
42187;DHT22;27858;51.414;0.018;2023-05-10T09:47:02;15.30;99.90
42187;DHT22;27858;51.414;0.018;2023-05-10T09:49:29;15.30;99.90
42187;DHT22;27858;51.414;0.018;2023-05-10T09:52:02;15.40;99.90
42187;DHT22;27858;51.414;0.018;2023-05-10T09:54:30;15.30;99.90
42187;DHT22;27858;51.414;0.018;2023-05-10T09:56:57;15.40;99.90
42187;DHT22;27858;51.414;0.018;2023-05-10T09:59:27;15.50;99.90
42187;DHT22;27858;51.414;0.018;2023-05-10T10:01:59;15.40;99.90
42187;DHT22;27858;51.414;0.018;2023-05-10T10:04:26;15.40;99.90
42187;DHT22;27858;51.414;0.018;2023-05-10T10:07:02;15.60;99.90
42187;DHT22;27858;51.414;0.018;2023-05-10T10:09:30;15.80;99.90
42187;DHT22;27858;51.414;0.018;2023-05-10T10:11:57;15.90;99.90
42187;DHT22;27858;51.414;0.018;2023-05-10T10:14:24;16.00;99.90
42187;DHT22;27858;51.414;0.018;2023-05-10T10:16:51;16.10;99.90
42187;DHT22;27858;51.414;0.018;2023-05-10T10:19:34;16.10;99.90
42187;DHT22;27858;51.414;0.018;2023-05-10T10:22:04;16.00;99.90
42187;DHT22;27858;51.414;0.018;2023-05-10T10:24:33;16.10;99.90
42187;DHT22;27858;51.414;0.018;2023-05-10T10:30:13;16.30;99.90
42187;DHT22;27858;51.414;0.018;2023-05-10T10:35:43;16.40;99.90
42187;DHT22;27858;51.414;0.018;2023-05-10T10:38:13;16.50;99.90
42187;DHT22;27858;51.414;0.018;2023-05-10T10:40:40;16.50;99.90
42187;DHT22;27858;51.414;0.018;2023-05-10T10:43:23;16.40;99.90
42187;DHT22;27858;51.414;0.018;2023-05-10T10:46:14;16.50;99.90
42187;DHT22;27858;51.414;0.018;2023-05-10T10:48:47;16.60;99.90
42187;DHT22;27858;51.414;0.018;2023-05-10T10:51:14;16.60;99.90
42187;DHT22;27858;51.414;0.018;2023-05-10T10:53:41;16.80;99.90
42187;DHT22;27858;51.414;0.018;2023-05-10T10:56:11;16.90;99.90
42187;DHT22;27858;51.414;0.018;2023-05-10T10:58:41;16.90;99.90
42187;DHT22;27858;51.414;0.018;2023-05-10T11:06:42;16.80;99.90
42187;DHT22;27858;51.414;0.018;2023-05-10T11:09:11;16.70;99.90
42187;DHT22;27858;51.414;0.018;2023-05-10T11:11:53;16.90;99.90
42187;DHT22;27858;51.414;0.018;2023-05-10T11:14:25;17.20;99.90
42187;DHT22;27858;51.414;0.018;2023-05-10T11:16:53;17.10;88.00
42187;DHT22;27858;51.414;0.018;2023-05-10T11:19:20;17.20;77.80
42187;DHT22;27858;51.414;0.018;2023-05-10T11:22:12;17.30;97.30
42187;DHT22;27858;51.414;0.018;2023-05-10T11:24:39;17.20;60.60
42187;DHT22;27858;51.414;0.018;2023-05-10T11:27:06;17.00;69.90
42187;DHT22;27858;51.414;0.018;2023-05-10T11:29:34;16.90;36.50
42187;DHT22;27858;51.414;0.018;2023-05-10T11:32:01;17.00;50.10
42187;DHT22;27858;51.414;0.018;2023-05-10T11:34:30;17.00;36.90
42187;DHT22;27858;51.414;0.018;2023-05-10T11:36:57;17.00;25.90
42187;DHT22;27858;51.414;0.018;2023-05-10T11:39:28;16.90;25.80
42187;DHT22;27858;51.414;0.018;2023-05-10T11:41:56;17.10;29.40
42187;DHT22;27858;51.414;0.018;2023-05-10T11:44:29;17.40;40.50
42187;DHT22;27858;51.414;0.018;2023-05-10T11:47:01;17.50;37.20
42187;DHT22;27858;51.414;0.018;2023-05-10T11:49:28;17.60;52.90
42187;DHT22;27858;51.414;0.018;2023-05-10T11:52:08;17.60;9.30
42187;DHT22;27858;51.414;0.018;2023-05-10T11:54:35;17.80;1.00
42187;DHT22;27858;51.414;0.018;2023-05-10T11:57:03;17.90;1.00
42187;DHT22;27858;51.414;0.018;2023-05-10T11:59:30;18.00;1.00
42187;DHT22;27858;51.414;0.018;2023-05-10T12:01:57;18.10;1.00
42187;DHT22;27858;51.414;0.018;2023-05-10T12:04:24;18.40;1.00
42187;DHT22;27858;51.414;0.018;2023-05-10T12:06:51;18.50;1.00
42187;DHT22;27858;51.414;0.018;2023-05-10T12:09:18;18.70;1.00
42187;DHT22;27858;51.414;0.018;2023-05-10T12:12:02;18.70;1.00
42187;DHT22;27858;51.414;0.018;2023-05-10T12:14:29;18.50;1.00
42187;DHT22;27858;51.414;0.018;2023-05-10T12:17:00;18.50;1.00
42187;DHT22;27858;51.414;0.018;2023-05-10T12:19:26;18.40;1.00
42187;DHT22;27858;51.414;0.018;2023-05-10T12:21:53;18.30;1.00
42187;DHT22;27858;51.414;0.018;2023-05-10T12:24:20;18.20;1.00
42187;DHT22;27858;51.414;0.018;2023-05-10T12:26:48;17.90;1.00
42187;DHT22;27858;51.414;0.018;2023-05-10T12:29:16;18.00;1.00
42187;DHT22;27858;51.414;0.018;2023-05-10T12:31:50;17.90;1.00
42187;DHT22;27858;51.414;0.018;2023-05-10T12:34:31;17.90;1.00
42187;DHT22;27858;51.414;0.018;2023-05-10T12:36:59;18.10;1.00
42187;DHT22;27858;51.414;0.018;2023-05-10T12:39:26;18.30;1.00
42187;DHT22;27858;51.414;0.018;2023-05-10T12:42:03;18.40;1.00
42187;DHT22;27858;51.414;0.018;2023-05-10T12:44:30;18.20;1.00
42187;DHT22;27858;51.414;0.018;2023-05-10T12:46:57;18.40;1.00
42187;DHT22;27858;51.414;0.018;2023-05-10T12:49:23;18.40;1.00
42187;DHT22;27858;51.414;0.018;2023-05-10T12:51:51;18.30;1.00
42187;DHT22;27858;51.414;0.018;2023-05-10T12:54:18;18.20;1.00
42187;DHT22;27858;51.414;0.018;2023-05-10T12:56:44;18.00;1.00
42187;DHT22;27858;51.414;0.018;2023-05-10T12:59:11;17.80;1.00
42187;DHT22;27858;51.414;0.018;2023-05-10T13:01:38;18.00;11.00
42187;DHT22;27858;51.414;0.018;2023-05-10T13:04:05;18.20;1.00
42187;DHT22;27858;51.414;0.018;2023-05-10T13:06:32;18.50;1.00
42187;DHT22;27858;51.414;0.018;2023-05-10T13:08:58;18.70;1.00
42187;DHT22;27858;51.414;0.018;2023-05-10T13:11:25;19.00;1.00
42187;DHT22;27858;51.414;0.018;2023-05-10T13:13:54;18.90;1.00
42187;DHT22;27858;51.414;0.018;2023-05-10T13:16:22;18.90;1.00
42187;DHT22;27858;51.414;0.018;2023-05-10T13:18:49;19.00;1.00
42187;DHT22;27858;51.414;0.018;2023-05-10T13:21:16;19.00;1.00
42187;DHT22;27858;51.414;0.018;2023-05-10T13:23:43;19.00;1.00
42187;DHT22;27858;51.414;0.018;2023-05-10T13:26:09;18.80;1.00
42187;DHT22;27858;51.414;0.018;2023-05-10T13:28:37;18.60;1.00
42187;DHT22;27858;51.414;0.018;2023-05-10T13:31:05;18.40;1.00
42187;DHT22;27858;51.414;0.018;2023-05-10T13:33:32;18.30;1.00
42187;DHT22;27858;51.414;0.018;2023-05-10T13:35:58;18.20;1.00
42187;DHT22;27858;51.414;0.018;2023-05-10T13:38:25;18.30;1.00
42187;DHT22;27858;51.414;0.018;2023-05-10T13:40:52;18.20;1.00
42187;DHT22;27858;51.414;0.018;2023-05-10T13:43:19;18.10;1.00
42187;DHT22;27858;51.414;0.018;2023-05-10T13:45:46;18.30;1.00
42187;DHT22;27858;51.414;0.018;2023-05-10T13:48:13;18.40;1.00
42187;DHT22;27858;51.414;0.018;2023-05-10T13:50:40;18.20;1.00
42187;DHT22;27858;51.414;0.018;2023-05-10T13:53:06;18.20;1.00
42187;DHT22;27858;51.414;0.018;2023-05-10T13:55:33;18.10;1.00
42187;DHT22;27858;51.414;0.018;2023-05-10T13:58:01;17.90;1.00
42187;DHT22;27858;51.414;0.018;2023-05-10T14:00:29;17.70;28.00
42187;DHT22;27858;51.414;0.018;2023-05-10T14:02:57;17.20;49.10
42187;DHT22;27858;51.414;0.018;2023-05-10T14:05:25;16.70;46.20
42187;DHT22;27858;51.414;0.018;2023-05-10T14:07:54;16.30;76.40
42187;DHT22;27858;51.414;0.018;2023-05-10T14:10:21;16.10;99.90
42187;DHT22;27858;51.414;0.018;2023-05-10T14:12:49;15.80;99.90
42187;DHT22;27858;51.414;0.018;2023-05-10T14:15:16;15.50;99.90
42187;DHT22;27858;51.414;0.018;2023-05-10T14:17:43;15.20;99.90
42187;DHT22;27858;51.414;0.018;2023-05-10T14:20:11;15.00;99.90
42187;DHT22;27858;51.414;0.018;2023-05-10T14:22:37;15.00;99.90
42187;DHT22;27858;51.414;0.018;2023-05-10T14:25:04;15.00;99.90
42187;DHT22;27858;51.414;0.018;2023-05-10T14:27:32;14.90;99.90
42187;DHT22;27858;51.414;0.018;2023-05-10T14:29:59;14.90;99.90
42187;DHT22;27858;51.414;0.018;2023-05-10T14:32:25;15.10;99.90
42187;DHT22;27858;51.414;0.018;2023-05-10T14:34:53;15.30;99.90
42187;DHT22;27858;51.414;0.018;2023-05-10T14:37:20;15.40;99.90
42187;DHT22;27858;51.414;0.018;2023-05-10T14:39:47;15.70;99.90
42187;DHT22;27858;51.414;0.018;2023-05-10T14:42:14;15.60;99.90
42187;DHT22;27858;51.414;0.018;2023-05-10T14:44:40;15.70;99.90
42187;DHT22;27858;51.414;0.018;2023-05-10T14:47:07;16.10;99.90
42187;DHT22;27858;51.414;0.018;2023-05-10T14:49:36;16.70;99.90
42187;DHT22;27858;51.414;0.018;2023-05-10T14:52:03;17.40;99.90
42187;DHT22;27858;51.414;0.018;2023-05-10T14:54:30;18.30;99.90
42187;DHT22;27858;51.414;0.018;2023-05-10T14:56:56;18.70;99.90
42187;DHT22;27858;51.414;0.018;2023-05-10T14:59:23;18.70;99.90
42187;DHT22;27858;51.414;0.018;2023-05-10T15:01:50;19.10;99.90
42187;DHT22;27858;51.414;0.018;2023-05-10T15:04:19;19.10;99.90
42187;DHT22;27858;51.414;0.018;2023-05-10T15:06:46;19.30;99.90
42187;DHT22;27858;51.414;0.018;2023-05-10T15:09:13;19.80;99.90
42187;DHT22;27858;51.414;0.018;2023-05-10T15:11:39;19.10;99.90
42187;DHT22;27858;51.414;0.018;2023-05-10T15:14:06;18.50;99.90
42187;DHT22;27858;51.414;0.018;2023-05-10T15:16:33;18.10;99.90
42187;DHT22;27858;51.414;0.018;2023-05-10T15:19:02;17.70;99.90
42187;DHT22;27858;51.414;0.018;2023-05-10T15:21:29;17.80;99.90
42187;DHT22;27858;51.414;0.018;2023-05-10T15:24:01;17.70;99.90
42187;DHT22;27858;51.414;0.018;2023-05-10T15:26:28;17.80;99.90
42187;DHT22;27858;51.414;0.018;2023-05-10T15:28:54;17.50;99.90
42187;DHT22;27858;51.414;0.018;2023-05-10T15:31:21;17.50;99.90
42187;DHT22;27858;51.414;0.018;2023-05-10T15:33:48;17.70;99.90
42187;DHT22;27858;51.414;0.018;2023-05-10T15:36:15;18.10;99.90
42187;DHT22;27858;51.414;0.018;2023-05-10T15:38:43;18.80;99.90
42187;DHT22;27858;51.414;0.018;2023-05-10T15:41:11;19.70;99.90
42187;DHT22;27858;51.414;0.018;2023-05-10T15:43:38;20.20;99.90
42187;DHT22;27858;51.414;0.018;2023-05-10T15:46:06;20.60;99.90
42187;DHT22;27858;51.414;0.018;2023-05-10T15:48:33;21.40;99.90
42187;DHT22;27858;51.414;0.018;2023-05-10T15:51:00;21.10;1.00
42187;DHT22;27858;51.414;0.018;2023-05-10T15:53:26;20.70;8.40
42187;DHT22;27858;51.414;0.018;2023-05-10T15:55:53;20.50;31.00
42187;DHT22;27858;51.414;0.018;2023-05-10T15:58:21;19.90;29.50
42187;DHT22;27858;51.414;0.018;2023-05-10T16:00:48;19.10;1.00
42187;DHT22;27858;51.414;0.018;2023-05-10T16:03:17;18.40;1.00
42187;DHT22;27858;51.414;0.018;2023-05-10T16:05:45;18.10;12.10
42187;DHT22;27858;51.414;0.018;2023-05-10T16:08:16;18.00;39.70
42187;DHT22;27858;51.414;0.018;2023-05-10T16:10:44;17.80;99.00
42187;DHT22;27858;51.414;0.018;2023-05-10T16:13:11;17.70;99.90
42187;DHT22;27858;51.414;0.018;2023-05-10T16:15:37;17.60;99.90
42187;DHT22;27858;51.414;0.018;2023-05-10T16:18:04;17.40;99.90
42187;DHT22;27858;51.414;0.018;2023-05-10T16:20:32;17.40;99.90
42187;DHT22;27858;51.414;0.018;2023-05-10T16:23:03;17.10;99.90
42187;DHT22;27858;51.414;0.018;2023-05-10T16:25:32;17.00;99.90
42187;DHT22;27858;51.414;0.018;2023-05-10T16:27:59;16.80;99.90
42187;DHT22;27858;51.414;0.018;2023-05-10T16:30:26;16.50;99.90
42187;DHT22;27858;51.414;0.018;2023-05-10T16:32:56;16.20;99.90
42187;DHT22;27858;51.414;0.018;2023-05-10T16:35:23;16.00;99.90
42187;DHT22;27858;51.414;0.018;2023-05-10T16:37:50;15.70;99.90
42187;DHT22;27858;51.414;0.018;2023-05-10T16:40:18;15.60;99.90
42187;DHT22;27858;51.414;0.018;2023-05-10T16:42:44;15.50;99.90
42187;DHT22;27858;51.414;0.018;2023-05-10T16:45:12;15.40;99.90
42187;DHT22;27858;51.414;0.018;2023-05-10T16:47:40;15.40;99.90
42187;DHT22;27858;51.414;0.018;2023-05-10T16:50:07;15.30;99.90
42187;DHT22;27858;51.414;0.018;2023-05-10T16:52:35;15.20;99.90
42187;DHT22;27858;51.414;0.018;2023-05-10T16:55:02;14.90;99.90
42187;DHT22;27858;51.414;0.018;2023-05-10T16:57:32;14.90;99.90
42187;DHT22;27858;51.414;0.018;2023-05-10T16:59:59;14.80;99.90
42187;DHT22;27858;51.414;0.018;2023-05-10T17:02:25;14.80;99.90
42187;DHT22;27858;51.414;0.018;2023-05-10T17:04:53;14.70;99.90
42187;DHT22;27858;51.414;0.018;2023-05-10T17:07:21;14.70;99.90
42187;DHT22;27858;51.414;0.018;2023-05-10T17:09:51;14.60;99.90
42187;DHT22;27858;51.414;0.018;2023-05-10T17:12:18;14.60;99.90
42187;DHT22;27858;51.414;0.018;2023-05-10T17:14:45;14.50;99.90
42187;DHT22;27858;51.414;0.018;2023-05-10T17:17:12;14.40;99.90
42187;DHT22;27858;51.414;0.018;2023-05-10T17:19:38;14.40;99.90
42187;DHT22;27858;51.414;0.018;2023-05-10T17:22:05;14.30;99.90
42187;DHT22;27858;51.414;0.018;2023-05-10T17:24:32;14.20;99.90
42187;DHT22;27858;51.414;0.018;2023-05-10T17:26:59;14.20;99.90
42187;DHT22;27858;51.414;0.018;2023-05-10T17:29:26;14.20;99.90
42187;DHT22;27858;51.414;0.018;2023-05-10T17:31:54;14.00;99.90
42187;DHT22;27858;51.414;0.018;2023-05-10T17:34:21;13.90;99.90
42187;DHT22;27858;51.414;0.018;2023-05-10T17:36:47;13.80;99.90
42187;DHT22;27858;51.414;0.018;2023-05-10T17:39:14;13.70;99.90
42187;DHT22;27858;51.414;0.018;2023-05-10T17:41:41;13.70;99.90
42187;DHT22;27858;51.414;0.018;2023-05-10T17:44:08;13.60;99.90
42187;DHT22;27858;51.414;0.018;2023-05-10T17:46:35;13.60;99.90
42187;DHT22;27858;51.414;0.018;2023-05-10T17:49:02;13.60;99.90
42187;DHT22;27858;51.414;0.018;2023-05-10T17:51:29;13.60;99.90
42187;DHT22;27858;51.414;0.018;2023-05-10T17:53:55;13.60;99.90
42187;DHT22;27858;51.414;0.018;2023-05-10T17:56:22;13.70;99.90
42187;DHT22;27858;51.414;0.018;2023-05-10T17:58:49;13.60;99.90
42187;DHT22;27858;51.414;0.018;2023-05-10T18:01:16;13.70;99.90
42187;DHT22;27858;51.414;0.018;2023-05-10T18:03:43;13.70;99.90
42187;DHT22;27858;51.414;0.018;2023-05-10T18:06:10;13.90;99.90
42187;DHT22;27858;51.414;0.018;2023-05-10T18:08:36;13.70;99.90
42187;DHT22;27858;51.414;0.018;2023-05-10T18:11:03;13.80;99.90
42187;DHT22;27858;51.414;0.018;2023-05-10T18:13:30;13.90;99.90
42187;DHT22;27858;51.414;0.018;2023-05-10T18:15:57;14.00;99.90
42187;DHT22;27858;51.414;0.018;2023-05-10T18:18:24;14.10;99.90
42187;DHT22;27858;51.414;0.018;2023-05-10T18:20:51;14.10;99.90
42187;DHT22;27858;51.414;0.018;2023-05-10T18:23:23;14.00;99.90
42187;DHT22;27858;51.414;0.018;2023-05-10T18:25:50;14.00;99.90
42187;DHT22;27858;51.414;0.018;2023-05-10T18:28:17;14.00;99.90
42187;DHT22;27858;51.414;0.018;2023-05-10T18:30:44;14.10;99.90
42187;DHT22;27858;51.414;0.018;2023-05-10T18:33:11;14.20;99.90
42187;DHT22;27858;51.414;0.018;2023-05-10T18:35:38;14.30;99.90
42187;DHT22;27858;51.414;0.018;2023-05-10T18:38:08;14.30;99.90
42187;DHT22;27858;51.414;0.018;2023-05-10T18:40:39;14.30;99.90
42187;DHT22;27858;51.414;0.018;2023-05-10T18:43:06;14.30;99.90
42187;DHT22;27858;51.414;0.018;2023-05-10T18:45:33;14.20;99.90
42187;DHT22;27858;51.414;0.018;2023-05-10T18:48:01;14.20;99.90
42187;DHT22;27858;51.414;0.018;2023-05-10T18:50:28;14.30;99.90
42187;DHT22;27858;51.414;0.018;2023-05-10T18:52:54;14.30;99.90
42187;DHT22;27858;51.414;0.018;2023-05-10T18:55:23;14.30;99.90
42187;DHT22;27858;51.414;0.018;2023-05-10T18:57:51;14.20;99.90
42187;DHT22;27858;51.414;0.018;2023-05-10T19:00:18;14.30;99.90
42187;DHT22;27858;51.414;0.018;2023-05-10T19:02:46;14.10;99.90
42187;DHT22;27858;51.414;0.018;2023-05-10T19:05:13;14.20;99.90
42187;DHT22;27858;51.414;0.018;2023-05-10T19:07:41;14.20;99.90
42187;DHT22;27858;51.414;0.018;2023-05-10T19:10:10;14.10;99.90
42187;DHT22;27858;51.414;0.018;2023-05-10T19:12:38;14.10;99.90
42187;DHT22;27858;51.414;0.018;2023-05-10T19:15:07;14.10;99.90
42187;DHT22;27858;51.414;0.018;2023-05-10T19:17:34;14.10;99.90
42187;DHT22;27858;51.414;0.018;2023-05-10T19:20:04;14.00;99.90
42187;DHT22;27858;51.414;0.018;2023-05-10T19:22:32;13.90;99.90
42187;DHT22;27858;51.414;0.018;2023-05-10T19:25:19;14.00;99.90
42187;DHT22;27858;51.414;0.018;2023-05-10T19:27:47;13.90;99.90
42187;DHT22;27858;51.414;0.018;2023-05-10T19:30:14;14.00;99.90
42187;DHT22;27858;51.414;0.018;2023-05-10T19:32:41;14.00;99.90
42187;DHT22;27858;51.414;0.018;2023-05-10T19:35:13;14.00;99.90
42187;DHT22;27858;51.414;0.018;2023-05-10T19:37:49;14.00;99.90
42187;DHT22;27858;51.414;0.018;2023-05-10T19:40:20;14.00;99.90
42187;DHT22;27858;51.414;0.018;2023-05-10T19:42:48;13.90;99.90
42187;DHT22;27858;51.414;0.018;2023-05-10T19:45:15;13.90;99.90
42187;DHT22;27858;51.414;0.018;2023-05-10T19:47:48;14.00;99.90
42187;DHT22;27858;51.414;0.018;2023-05-10T19:50:24;14.00;99.90